sensor_id;sensor_type;location;lat;lon;timestamp;P1;durP1;ratioP1;P2;durP2;ratioP2
36475;SDS011;56615;42.682;23.364;2022-07-18T00:01:23;5.05;;;2.15;;
36475;SDS011;56615;42.682;23.364;2022-07-18T00:03:48;6.95;;;2.55;;
36475;SDS011;56615;42.682;23.364;2022-07-18T00:06:14;6.75;;;2.40;;
36475;SDS011;56615;42.682;23.364;2022-07-18T00:08:39;5.57;;;2.47;;
36475;SDS011;56615;42.682;23.364;2022-07-18T00:11:04;5.25;;;2.28;;
36475;SDS011;56615;42.682;23.364;2022-07-18T00:13:30;5.45;;;2.22;;
36475;SDS011;56615;42.682;23.364;2022-07-18T00:15:55;3.78;;;2.10;;
36475;SDS011;56615;42.682;23.364;2022-07-18T00:18:21;4.45;;;2.40;;
36475;SDS011;56615;42.682;23.364;2022-07-18T00:20:46;5.18;;;2.30;;
36475;SDS011;56615;42.682;23.364;2022-07-18T00:23:11;5.78;;;2.22;;
36475;SDS011;56615;42.682;23.364;2022-07-18T00:25:37;3.72;;;2.03;;
36475;SDS011;56615;42.682;23.364;2022-07-18T00:28:02;3.72;;;2.10;;
36475;SDS011;56615;42.682;23.364;2022-07-18T00:30:28;6.32;;;2.33;;
36475;SDS011;56615;42.682;23.364;2022-07-18T00:32:54;5.95;;;2.22;;
36475;SDS011;56615;42.682;23.364;2022-07-18T00:35:19;5.88;;;2.10;;
36475;SDS011;56615;42.682;23.364;2022-07-18T00:37:45;6.75;;;2.00;;
36475;SDS011;56615;42.682;23.364;2022-07-18T00:40:10;5.32;;;1.98;;
36475;SDS011;56615;42.682;23.364;2022-07-18T00:42:36;4.85;;;2.10;;
36475;SDS011;56615;42.682;23.364;2022-07-18T00:45:01;6.53;;;2.10;;
36475;SDS011;56615;42.682;23.364;2022-07-18T00:47:28;4.78;;;2.17;;
36475;SDS011;56615;42.682;23.364;2022-07-18T00:49:53;4.45;;;2.20;;
36475;SDS011;56615;42.682;23.364;2022-07-18T00:52:19;6.28;;;2.38;;
36475;SDS011;56615;42.682;23.364;2022-07-18T00:54:45;4.78;;;2.08;;
36475;SDS011;56615;42.682;23.364;2022-07-18T00:57:11;5.05;;;2.00;;
36475;SDS011;56615;42.682;23.364;2022-07-18T00:59:38;6.15;;;1.98;;
36475;SDS011;56615;42.682;23.364;2022-07-18T01:02:23;4.47;;;2.10;;
36475;SDS011;56615;42.682;23.364;2022-07-18T01:04:49;5.95;;;2.08;;
36475;SDS011;56615;42.682;23.364;2022-07-18T01:07:14;3.35;;;2.03;;
36475;SDS011;56615;42.682;23.364;2022-07-18T01:09:40;3.88;;;1.90;;
36475;SDS011;56615;42.682;23.364;2022-07-18T01:12:05;3.88;;;1.95;;
36475;SDS011;56615;42.682;23.364;2022-07-18T01:14:31;5.05;;;2.13;;
36475;SDS011;56615;42.682;23.364;2022-07-18T01:16:57;3.80;;;1.90;;
36475;SDS011;56615;42.682;23.364;2022-07-18T01:19:22;6.50;;;1.88;;
36475;SDS011;56615;42.682;23.364;2022-07-18T01:21:48;3.55;;;1.80;;
36475;SDS011;56615;42.682;23.364;2022-07-18T01:24:14;3.10;;;1.70;;
36475;SDS011;56615;42.682;23.364;2022-07-18T01:26:40;4.68;;;1.98;;
36475;SDS011;56615;42.682;23.364;2022-07-18T01:29:06;4.00;;;1.77;;
36475;SDS011;56615;42.682;23.364;2022-07-18T01:31:33;3.42;;;1.63;;
36475;SDS011;56615;42.682;23.364;2022-07-18T01:33:59;2.75;;;1.55;;
36475;SDS011;56615;42.682;23.364;2022-07-18T01:36:26;4.57;;;1.80;;
36475;SDS011;56615;42.682;23.364;2022-07-18T01:38:51;4.13;;;1.85;;
36475;SDS011;56615;42.682;23.364;2022-07-18T01:41:18;3.80;;;1.83;;
36475;SDS011;56615;42.682;23.364;2022-07-18T01:43:43;3.13;;;1.80;;
36475;SDS011;56615;42.682;23.364;2022-07-18T01:46:10;3.17;;;1.42;;
36475;SDS011;56615;42.682;23.364;2022-07-18T01:48:37;4.20;;;1.60;;
36475;SDS011;56615;42.682;23.364;2022-07-18T01:51:03;3.88;;;1.80;;
36475;SDS011;56615;42.682;23.364;2022-07-18T01:53:28;2.90;;;1.60;;
36475;SDS011;56615;42.682;23.364;2022-07-18T01:55:54;4.05;;;2.00;;
36475;SDS011;56615;42.682;23.364;2022-07-18T01:58:20;4.18;;;1.85;;
36475;SDS011;56615;42.682;23.364;2022-07-18T02:00:45;6.22;;;1.85;;
36475;SDS011;56615;42.682;23.364;2022-07-18T02:03:12;4.80;;;1.85;;
36475;SDS011;56615;42.682;23.364;2022-07-18T02:05:38;3.33;;;1.85;;
36475;SDS011;56615;42.682;23.364;2022-07-18T02:08:03;3.97;;;2.03;;
36475;SDS011;56615;42.682;23.364;2022-07-18T02:10:29;3.17;;;1.77;;
36475;SDS011;56615;42.682;23.364;2022-07-18T02:12:55;3.78;;;1.65;;
36475;SDS011;56615;42.682;23.364;2022-07-18T02:15:20;4.75;;;2.10;;
36475;SDS011;56615;42.682;23.364;2022-07-18T02:17:47;4.70;;;2.25;;
36475;SDS011;56615;42.682;23.364;2022-07-18T02:20:13;5.78;;;2.00;;
36475;SDS011;56615;42.682;23.364;2022-07-18T02:22:40;2.95;;;1.70;;
36475;SDS011;56615;42.682;23.364;2022-07-18T02:25:06;2.47;;;1.80;;
36475;SDS011;56615;42.682;23.364;2022-07-18T02:27:32;2.33;;;1.60;;
36475;SDS011;56615;42.682;23.364;2022-07-18T02:29:58;4.55;;;1.90;;
36475;SDS011;56615;42.682;23.364;2022-07-18T02:32:24;3.30;;;1.63;;
36475;SDS011;56615;42.682;23.364;2022-07-18T02:34:49;4.63;;;1.80;;
36475;SDS011;56615;42.682;23.364;2022-07-18T02:37:15;3.95;;;1.85;;
36475;SDS011;56615;42.682;23.364;2022-07-18T02:39:42;4.00;;;1.75;;
36475;SDS011;56615;42.682;23.364;2022-07-18T02:42:07;3.15;;;1.67;;
36475;SDS011;56615;42.682;23.364;2022-07-18T02:44:33;4.50;;;1.80;;
36475;SDS011;56615;42.682;23.364;2022-07-18T02:46:58;3.63;;;1.75;;
36475;SDS011;56615;42.682;23.364;2022-07-18T02:49:25;3.75;;;1.95;;
36475;SDS011;56615;42.682;23.364;2022-07-18T02:51:57;4.60;;;1.90;;
36475;SDS011;56615;42.682;23.364;2022-07-18T02:54:25;5.65;;;1.90;;
36475;SDS011;56615;42.682;23.364;2022-07-18T02:56:53;2.70;;;1.70;;
36475;SDS011;56615;42.682;23.364;2022-07-18T02:59:18;8.05;;;2.10;;
36475;SDS011;56615;42.682;23.364;2022-07-18T03:01:44;4.78;;;1.98;;
36475;SDS011;56615;42.682;23.364;2022-07-18T03:04:11;3.85;;;1.83;;
36475;SDS011;56615;42.682;23.364;2022-07-18T03:06:37;3.78;;;2.15;;
36475;SDS011;56615;42.682;23.364;2022-07-18T03:09:03;4.43;;;1.95;;
36475;SDS011;56615;42.682;23.364;2022-07-18T03:11:29;7.88;;;1.50;;
36475;SDS011;56615;42.682;23.364;2022-07-18T03:13:54;5.70;;;1.80;;
36475;SDS011;56615;42.682;23.364;2022-07-18T03:16:20;5.55;;;1.80;;
36475;SDS011;56615;42.682;23.364;2022-07-18T03:18:45;7.47;;;1.92;;
36475;SDS011;56615;42.682;23.364;2022-07-18T03:21:10;6.30;;;2.10;;
36475;SDS011;56615;42.682;23.364;2022-07-18T03:23:36;9.45;;;1.90;;
36475;SDS011;56615;42.682;23.364;2022-07-18T03:26:01;4.93;;;1.80;;
36475;SDS011;56615;42.682;23.364;2022-07-18T03:28:27;4.45;;;1.73;;
36475;SDS011;56615;42.682;23.364;2022-07-18T03:30:53;4.25;;;1.77;;
36475;SDS011;56615;42.682;23.364;2022-07-18T03:33:19;4.93;;;2.08;;
36475;SDS011;56615;42.682;23.364;2022-07-18T03:35:44;4.28;;;1.50;;
36475;SDS011;56615;42.682;23.364;2022-07-18T03:38:11;3.22;;;1.80;;
36475;SDS011;56615;42.682;23.364;2022-07-18T03:40:37;5.85;;;2.00;;
36475;SDS011;56615;42.682;23.364;2022-07-18T03:43:02;5.95;;;2.33;;
36475;SDS011;56615;42.682;23.364;2022-07-18T03:45:27;9.23;;;2.75;;
36475;SDS011;56615;42.682;23.364;2022-07-18T03:47:53;7.70;;;3.45;;
36475;SDS011;56615;42.682;23.364;2022-07-18T03:50:20;8.50;;;3.28;;
36475;SDS011;56615;42.682;23.364;2022-07-18T03:52:46;8.13;;;3.47;;
36475;SDS011;56615;42.682;23.364;2022-07-18T03:55:12;6.32;;;2.95;;
36475;SDS011;56615;42.682;23.364;2022-07-18T03:57:38;7.50;;;3.15;;
36475;SDS011;56615;42.682;23.364;2022-07-18T04:00:04;8.52;;;3.60;;
36475;SDS011;56615;42.682;23.364;2022-07-18T04:02:37;7.57;;;3.30;;
36475;SDS011;56615;42.682;23.364;2022-07-18T04:05:06;7.43;;;4.03;;
36475;SDS011;56615;42.682;23.364;2022-07-18T04:07:32;9.98;;;3.95;;
36475;SDS011;56615;42.682;23.364;2022-07-18T04:09:57;9.82;;;3.55;;
36475;SDS011;56615;42.682;23.364;2022-07-18T04:12:23;7.82;;;2.80;;
36475;SDS011;56615;42.682;23.364;2022-07-18T04:14:48;5.82;;;2.85;;
36475;SDS011;56615;42.682;23.364;2022-07-18T04:17:13;5.20;;;2.95;;
36475;SDS011;56615;42.682;23.364;2022-07-18T04:19:39;6.95;;;2.88;;
36475;SDS011;56615;42.682;23.364;2022-07-18T04:22:04;6.82;;;2.90;;
36475;SDS011;56615;42.682;23.364;2022-07-18T04:24:30;8.32;;;2.80;;
36475;SDS011;56615;42.682;23.364;2022-07-18T04:26:56;6.22;;;2.78;;
36475;SDS011;56615;42.682;23.364;2022-07-18T04:29:21;9.10;;;2.90;;
36475;SDS011;56615;42.682;23.364;2022-07-18T04:31:47;3.75;;;2.58;;
36475;SDS011;56615;42.682;23.364;2022-07-18T04:34:12;10.05;;;3.15;;
36475;SDS011;56615;42.682;23.364;2022-07-18T04:36:38;8.85;;;3.80;;
36475;SDS011;56615;42.682;23.364;2022-07-18T04:39:03;8.10;;;3.33;;
36475;SDS011;56615;42.682;23.364;2022-07-18T04:41:29;10.43;;;3.92;;
36475;SDS011;56615;42.682;23.364;2022-07-18T04:43:54;10.57;;;4.15;;
36475;SDS011;56615;42.682;23.364;2022-07-18T04:46:20;10.57;;;3.70;;
36475;SDS011;56615;42.682;23.364;2022-07-18T04:48:46;9.43;;;3.65;;
36475;SDS011;56615;42.682;23.364;2022-07-18T04:51:12;8.73;;;3.55;;
36475;SDS011;56615;42.682;23.364;2022-07-18T04:53:37;9.43;;;3.20;;
36475;SDS011;56615;42.682;23.364;2022-07-18T04:56:03;6.35;;;3.10;;
36475;SDS011;56615;42.682;23.364;2022-07-18T04:58:28;8.23;;;3.25;;
36475;SDS011;56615;42.682;23.364;2022-07-18T05:00:54;6.97;;;3.08;;
36475;SDS011;56615;42.682;23.364;2022-07-18T05:03:21;9.00;;;3.25;;
36475;SDS011;56615;42.682;23.364;2022-07-18T05:05:46;8.40;;;3.10;;
36475;SDS011;56615;42.682;23.364;2022-07-18T05:08:12;8.40;;;2.92;;
36475;SDS011;56615;42.682;23.364;2022-07-18T05:10:40;10.73;;;3.90;;
36475;SDS011;56615;42.682;23.364;2022-07-18T05:13:05;8.57;;;3.40;;
36475;SDS011;56615;42.682;23.364;2022-07-18T05:15:32;9.27;;;3.83;;
36475;SDS011;56615;42.682;23.364;2022-07-18T05:17:58;9.05;;;3.53;;
36475;SDS011;56615;42.682;23.364;2022-07-18T05:20:24;9.85;;;3.50;;
36475;SDS011;56615;42.682;23.364;2022-07-18T05:22:51;12.15;;;3.28;;
36475;SDS011;56615;42.682;23.364;2022-07-18T05:25:17;9.70;;;3.10;;
36475;SDS011;56615;42.682;23.364;2022-07-18T05:27:45;9.48;;;3.03;;
36475;SDS011;56615;42.682;23.364;2022-07-18T05:30:11;12.70;;;3.42;;
36475;SDS011;56615;42.682;23.364;2022-07-18T05:32:38;11.02;;;3.70;;
36475;SDS011;56615;42.682;23.364;2022-07-18T05:35:06;10.15;;;3.33;;
36475;SDS011;56615;42.682;23.364;2022-07-18T05:37:34;10.75;;;3.40;;
36475;SDS011;56615;42.682;23.364;2022-07-18T05:40:02;11.05;;;3.47;;
36475;SDS011;56615;42.682;23.364;2022-07-18T05:44:57;13.37;;;3.13;;
36475;SDS011;56615;42.682;23.364;2022-07-18T05:47:22;12.40;;;3.65;;
36475;SDS011;56615;42.682;23.364;2022-07-18T05:49:47;7.07;;;2.83;;
36475;SDS011;56615;42.682;23.364;2022-07-18T05:52:13;8.73;;;2.63;;
36475;SDS011;56615;42.682;23.364;2022-07-18T05:54:39;7.15;;;2.42;;
36475;SDS011;56615;42.682;23.364;2022-07-18T05:57:06;8.30;;;2.55;;
36475;SDS011;56615;42.682;23.364;2022-07-18T05:59:32;8.65;;;2.50;;
36475;SDS011;56615;42.682;23.364;2022-07-18T06:01:59;9.07;;;2.28;;
36475;SDS011;56615;42.682;23.364;2022-07-18T06:04:24;7.45;;;2.63;;
36475;SDS011;56615;42.682;23.364;2022-07-18T06:06:51;9.07;;;2.22;;
36475;SDS011;56615;42.682;23.364;2022-07-18T06:09:17;8.25;;;1.95;;
36475;SDS011;56615;42.682;23.364;2022-07-18T06:11:44;8.55;;;2.15;;
36475;SDS011;56615;42.682;23.364;2022-07-18T06:14:10;10.65;;;2.00;;
36475;SDS011;56615;42.682;23.364;2022-07-18T06:16:35;6.95;;;1.60;;
36475;SDS011;56615;42.682;23.364;2022-07-18T06:19:02;4.22;;;1.45;;
36475;SDS011;56615;42.682;23.364;2022-07-18T06:21:27;4.35;;;1.40;;
36475;SDS011;56615;42.682;23.364;2022-07-18T06:23:53;3.42;;;1.45;;
36475;SDS011;56615;42.682;23.364;2022-07-18T06:26:18;3.63;;;1.33;;
36475;SDS011;56615;42.682;23.364;2022-07-18T06:28:44;3.47;;;1.30;;
36475;SDS011;56615;42.682;23.364;2022-07-18T06:31:11;2.50;;;1.30;;
36475;SDS011;56615;42.682;23.364;2022-07-18T06:33:41;4.30;;;1.20;;
36475;SDS011;56615;42.682;23.364;2022-07-18T06:36:07;10.88;;;1.70;;
36475;SDS011;56615;42.682;23.364;2022-07-18T06:39:16;2.80;;;1.40;;
36475;SDS011;56615;42.682;23.364;2022-07-18T06:42:03;4.55;;;1.60;;
36475;SDS011;56615;42.682;23.364;2022-07-18T06:44:28;4.03;;;1.40;;
36475;SDS011;56615;42.682;23.364;2022-07-18T06:46:54;7.50;;;1.42;;
36475;SDS011;56615;42.682;23.364;2022-07-18T06:49:22;4.53;;;1.35;;
36475;SDS011;56615;42.682;23.364;2022-07-18T06:51:48;4.75;;;1.33;;
36475;SDS011;56615;42.682;23.364;2022-07-18T06:54:13;4.00;;;1.40;;
36475;SDS011;56615;42.682;23.364;2022-07-18T06:56:38;3.05;;;1.40;;
36475;SDS011;56615;42.682;23.364;2022-07-18T06:59:04;4.38;;;1.27;;
36475;SDS011;56615;42.682;23.364;2022-07-18T07:01:29;4.93;;;1.23;;
36475;SDS011;56615;42.682;23.364;2022-07-18T07:03:55;4.80;;;1.30;;
36475;SDS011;56615;42.682;23.364;2022-07-18T07:06:21;5.05;;;1.45;;
36475;SDS011;56615;42.682;23.364;2022-07-18T07:08:47;3.70;;;1.17;;
36475;SDS011;56615;42.682;23.364;2022-07-18T07:11:12;2.28;;;1.20;;
36475;SDS011;56615;42.682;23.364;2022-07-18T07:13:38;3.88;;;1.60;;
36475;SDS011;56615;42.682;23.364;2022-07-18T07:16:05;8.63;;;1.50;;
36475;SDS011;56615;42.682;23.364;2022-07-18T07:18:30;5.95;;;1.40;;
36475;SDS011;56615;42.682;23.364;2022-07-18T07:20:56;3.80;;;1.20;;
36475;SDS011;56615;42.682;23.364;2022-07-18T07:23:22;3.70;;;1.27;;
36475;SDS011;56615;42.682;23.364;2022-07-18T07:25:47;5.30;;;1.20;;
36475;SDS011;56615;42.682;23.364;2022-07-18T07:28:13;5.10;;;1.50;;
36475;SDS011;56615;42.682;23.364;2022-07-18T07:30:38;5.68;;;1.45;;
36475;SDS011;56615;42.682;23.364;2022-07-18T07:33:06;8.82;;;1.60;;
36475;SDS011;56615;42.682;23.364;2022-07-18T07:35:32;5.07;;;1.17;;
36475;SDS011;56615;42.682;23.364;2022-07-18T07:37:58;2.50;;;1.10;;
36475;SDS011;56615;42.682;23.364;2022-07-18T07:40:25;4.82;;;1.30;;
36475;SDS011;56615;42.682;23.364;2022-07-18T07:42:52;6.15;;;1.20;;
36475;SDS011;56615;42.682;23.364;2022-07-18T07:45:18;4.72;;;1.23;;
36475;SDS011;56615;42.682;23.364;2022-07-18T07:47:43;2.90;;;1.20;;
36475;SDS011;56615;42.682;23.364;2022-07-18T07:50:09;4.60;;;1.50;;
36475;SDS011;56615;42.682;23.364;2022-07-18T07:52:36;3.88;;;1.27;;
36475;SDS011;56615;42.682;23.364;2022-07-18T07:55:02;3.17;;;1.38;;
36475;SDS011;56615;42.682;23.364;2022-07-18T07:57:28;5.72;;;1.38;;
36475;SDS011;56615;42.682;23.364;2022-07-18T07:59:54;6.50;;;1.40;;
36475;SDS011;56615;42.682;23.364;2022-07-18T08:02:19;4.90;;;1.20;;
36475;SDS011;56615;42.682;23.364;2022-07-18T08:04:45;5.22;;;1.30;;
36475;SDS011;56615;42.682;23.364;2022-07-18T08:07:10;2.35;;;1.30;;
36475;SDS011;56615;42.682;23.364;2022-07-18T08:09:36;3.65;;;1.15;;
36475;SDS011;56615;42.682;23.364;2022-07-18T08:12:02;3.13;;;1.25;;
36475;SDS011;56615;42.682;23.364;2022-07-18T08:14:28;4.28;;;1.20;;
36475;SDS011;56615;42.682;23.364;2022-07-18T08:16:53;4.32;;;1.10;;
36475;SDS011;56615;42.682;23.364;2022-07-18T08:19:19;2.78;;;1.10;;
36475;SDS011;56615;42.682;23.364;2022-07-18T08:21:44;1.65;;;1.20;;
36475;SDS011;56615;42.682;23.364;2022-07-18T08:24:10;4.38;;;1.38;;
36475;SDS011;56615;42.682;23.364;2022-07-18T08:26:36;5.88;;;1.40;;
36475;SDS011;56615;42.682;23.364;2022-07-18T08:29:07;2.60;;;1.20;;
36475;SDS011;56615;42.682;23.364;2022-07-18T08:31:37;2.92;;;1.33;;
36475;SDS011;56615;42.682;23.364;2022-07-18T08:34:02;6.95;;;1.40;;
36475;SDS011;56615;42.682;23.364;2022-07-18T08:36:28;4.20;;;1.40;;
36475;SDS011;56615;42.682;23.364;2022-07-18T08:38:53;1.67;;;1.20;;
36475;SDS011;56615;42.682;23.364;2022-07-18T08:41:19;2.28;;;1.20;;
36475;SDS011;56615;42.682;23.364;2022-07-18T08:43:47;2.53;;;1.30;;
36475;SDS011;56615;42.682;23.364;2022-07-18T08:46:14;2.35;;;1.50;;
36475;SDS011;56615;42.682;23.364;2022-07-18T08:48:43;3.60;;;1.40;;
36475;SDS011;56615;42.682;23.364;2022-07-18T08:51:08;2.63;;;1.30;;
36475;SDS011;56615;42.682;23.364;2022-07-18T08:53:35;4.93;;;1.70;;
36475;SDS011;56615;42.682;23.364;2022-07-18T08:56:04;5.18;;;1.75;;
36475;SDS011;56615;42.682;23.364;2022-07-18T08:58:30;5.80;;;1.48;;
36475;SDS011;56615;42.682;23.364;2022-07-18T09:00:56;5.82;;;1.20;;
36475;SDS011;56615;42.682;23.364;2022-07-18T09:03:23;4.22;;;1.50;;
36475;SDS011;56615;42.682;23.364;2022-07-18T09:06:01;5.40;;;1.30;;
36475;SDS011;56615;42.682;23.364;2022-07-18T09:08:37;6.13;;;1.40;;
36475;SDS011;56615;42.682;23.364;2022-07-18T09:11:16;3.35;;;1.30;;
36475;SDS011;56615;42.682;23.364;2022-07-18T09:16:59;4.85;;;1.27;;
36475;SDS011;56615;42.682;23.364;2022-07-18T09:19:29;2.75;;;1.40;;
36475;SDS011;56615;42.682;23.364;2022-07-18T09:22:10;3.72;;;1.50;;
36475;SDS011;56615;42.682;23.364;2022-07-18T09:25:07;5.28;;;1.20;;
36475;SDS011;56615;42.682;23.364;2022-07-18T09:33:07;6.40;;;1.52;;
36475;SDS011;56615;42.682;23.364;2022-07-18T09:35:37;4.57;;;1.98;;
36475;SDS011;56615;42.682;23.364;2022-07-18T09:38:12;4.30;;;1.60;;
36475;SDS011;56615;42.682;23.364;2022-07-18T09:40:49;2.35;;;1.60;;
36475;SDS011;56615;42.682;23.364;2022-07-18T09:43:18;3.13;;;1.38;;
36475;SDS011;56615;42.682;23.364;2022-07-18T09:45:54;3.53;;;1.58;;
36475;SDS011;56615;42.682;23.364;2022-07-18T09:48:22;5.15;;;1.83;;
36475;SDS011;56615;42.682;23.364;2022-07-18T09:50:58;3.55;;;1.50;;
36475;SDS011;56615;42.682;23.364;2022-07-18T09:56:05;10.68;;;2.75;;
36475;SDS011;56615;42.682;23.364;2022-07-18T09:58:36;6.65;;;1.73;;
36475;SDS011;56615;42.682;23.364;2022-07-18T10:01:07;4.50;;;1.67;;
36475;SDS011;56615;42.682;23.364;2022-07-18T10:03:34;9.75;;;1.80;;
36475;SDS011;56615;42.682;23.364;2022-07-18T10:06:01;3.65;;;1.80;;
36475;SDS011;56615;42.682;23.364;2022-07-18T10:08:31;9.55;;;1.85;;
36475;SDS011;56615;42.682;23.364;2022-07-18T10:10:58;5.45;;;1.70;;
36475;SDS011;56615;42.682;23.364;2022-07-18T10:13:25;4.15;;;1.77;;
36475;SDS011;56615;42.682;23.364;2022-07-18T10:15:52;6.80;;;1.90;;
36475;SDS011;56615;42.682;23.364;2022-07-18T10:18:19;6.05;;;1.67;;
36475;SDS011;56615;42.682;23.364;2022-07-18T10:23:31;7.47;;;1.80;;
36475;SDS011;56615;42.682;23.364;2022-07-18T10:31:28;4.22;;;1.70;;
36475;SDS011;56615;42.682;23.364;2022-07-18T10:34:29;7.60;;;3.70;;
36475;SDS011;56615;42.682;23.364;2022-07-18T10:39:32;9.98;;;2.08;;
36475;SDS011;56615;42.682;23.364;2022-07-18T10:44:33;5.78;;;1.80;;
36475;SDS011;56615;42.682;23.364;2022-07-18T10:47:17;6.10;;;1.88;;
36475;SDS011;56615;42.682;23.364;2022-07-18T10:58:14;6.13;;;2.10;;
36475;SDS011;56615;42.682;23.364;2022-07-18T11:00:24;4.40;;;1.90;;
36475;SDS011;56615;42.682;23.364;2022-07-18T11:21:31;5.65;;;1.90;;
36475;SDS011;56615;42.682;23.364;2022-07-18T11:24:08;6.07;;;1.90;;
36475;SDS011;56615;42.682;23.364;2022-07-18T11:26:36;3.97;;;1.63;;
36475;SDS011;56615;42.682;23.364;2022-07-18T11:29:25;5.43;;;2.10;;
36475;SDS011;56615;42.682;23.364;2022-07-18T11:31:52;4.20;;;1.63;;
36475;SDS011;56615;42.682;23.364;2022-07-18T11:34:19;2.30;;;1.70;;
36475;SDS011;56615;42.682;23.364;2022-07-18T11:36:46;3.65;;;1.95;;
36475;SDS011;56615;42.682;23.364;2022-07-18T11:39:12;6.95;;;2.25;;
36475;SDS011;56615;42.682;23.364;2022-07-18T11:41:39;3.10;;;1.80;;
36475;SDS011;56615;42.682;23.364;2022-07-18T11:44:05;6.90;;;1.80;;
36475;SDS011;56615;42.682;23.364;2022-07-18T11:46:35;5.75;;;1.83;;
36475;SDS011;56615;42.682;23.364;2022-07-18T11:49:02;3.70;;;1.90;;
36475;SDS011;56615;42.682;23.364;2022-07-18T11:51:42;7.43;;;2.13;;
36475;SDS011;56615;42.682;23.364;2022-07-18T11:54:16;8.43;;;2.10;;
36475;SDS011;56615;42.682;23.364;2022-07-18T11:56:49;7.82;;;2.10;;
36475;SDS011;56615;42.682;23.364;2022-07-18T11:59:16;6.05;;;1.95;;
36475;SDS011;56615;42.682;23.364;2022-07-18T12:01:42;7.60;;;2.03;;
36475;SDS011;56615;42.682;23.364;2022-07-18T12:04:23;4.75;;;1.90;;
36475;SDS011;56615;42.682;23.364;2022-07-18T12:09:39;7.95;;;2.00;;
36475;SDS011;56615;42.682;23.364;2022-07-18T12:12:14;4.60;;;2.10;;
36475;SDS011;56615;42.682;23.364;2022-07-18T12:15:01;5.60;;;2.30;;
36475;SDS011;56615;42.682;23.364;2022-07-18T12:17:27;8.15;;;2.50;;
36475;SDS011;56615;42.682;23.364;2022-07-18T12:20:08;5.07;;;2.28;;
36475;SDS011;56615;42.682;23.364;2022-07-18T12:25:39;6.55;;;2.22;;
36475;SDS011;56615;42.682;23.364;2022-07-18T12:28:16;9.90;;;2.03;;
36475;SDS011;56615;42.682;23.364;2022-07-18T12:30:44;4.40;;;1.92;;
36475;SDS011;56615;42.682;23.364;2022-07-18T12:33:11;5.00;;;2.30;;
36475;SDS011;56615;42.682;23.364;2022-07-18T12:35:39;7.63;;;1.90;;
36475;SDS011;56615;42.682;23.364;2022-07-18T12:38:14;7.93;;;2.33;;
36475;SDS011;56615;42.682;23.364;2022-07-18T12:40:51;7.28;;;1.90;;
36475;SDS011;56615;42.682;23.364;2022-07-18T12:45:52;5.20;;;1.88;;
36475;SDS011;56615;42.682;23.364;2022-07-18T12:48:19;6.88;;;2.10;;
36475;SDS011;56615;42.682;23.364;2022-07-18T12:50:45;7.00;;;2.20;;
36475;SDS011;56615;42.682;23.364;2022-07-18T12:53:26;4.75;;;2.10;;
36475;SDS011;56615;42.682;23.364;2022-07-18T12:55:56;4.65;;;2.05;;
36475;SDS011;56615;42.682;23.364;2022-07-18T12:58:22;5.28;;;2.13;;
36475;SDS011;56615;42.682;23.364;2022-07-18T13:01:31;5.10;;;2.00;;
36475;SDS011;56615;42.682;23.364;2022-07-18T13:03:58;3.55;;;1.80;;
36475;SDS011;56615;42.682;23.364;2022-07-18T13:06:23;6.80;;;2.17;;
36475;SDS011;56615;42.682;23.364;2022-07-18T13:08:49;7.30;;;2.10;;
36475;SDS011;56615;42.682;23.364;2022-07-18T13:11:16;4.18;;;1.73;;
36475;SDS011;56615;42.682;23.364;2022-07-18T13:13:41;5.10;;;1.92;;
36475;SDS011;56615;42.682;23.364;2022-07-18T13:16:07;3.67;;;1.95;;
36475;SDS011;56615;42.682;23.364;2022-07-18T13:18:32;11.30;;;2.30;;
36475;SDS011;56615;42.682;23.364;2022-07-18T13:20:58;8.60;;;2.25;;
36475;SDS011;56615;42.682;23.364;2022-07-18T13:23:23;8.68;;;2.20;;
36475;SDS011;56615;42.682;23.364;2022-07-18T13:25:49;8.27;;;2.22;;
36475;SDS011;56615;42.682;23.364;2022-07-18T13:28:14;4.38;;;2.05;;
36475;SDS011;56615;42.682;23.364;2022-07-18T13:30:40;4.43;;;2.10;;
36475;SDS011;56615;42.682;23.364;2022-07-18T13:33:05;4.20;;;1.88;;
36475;SDS011;56615;42.682;23.364;2022-07-18T13:35:33;8.00;;;2.63;;
36475;SDS011;56615;42.682;23.364;2022-07-18T13:37:59;6.95;;;2.15;;
36475;SDS011;56615;42.682;23.364;2022-07-18T13:40:24;5.72;;;1.90;;
36475;SDS011;56615;42.682;23.364;2022-07-18T13:42:50;5.43;;;2.00;;
36475;SDS011;56615;42.682;23.364;2022-07-18T13:45:15;8.25;;;2.22;;
36475;SDS011;56615;42.682;23.364;2022-07-18T13:47:42;4.53;;;1.95;;
36475;SDS011;56615;42.682;23.364;2022-07-18T13:50:10;6.45;;;2.05;;
36475;SDS011;56615;42.682;23.364;2022-07-18T13:52:36;7.32;;;2.00;;
36475;SDS011;56615;42.682;23.364;2022-07-18T13:55:01;5.00;;;2.35;;
36475;SDS011;56615;42.682;23.364;2022-07-18T13:57:27;8.93;;;2.33;;
36475;SDS011;56615;42.682;23.364;2022-07-18T13:59:52;5.15;;;2.00;;
36475;SDS011;56615;42.682;23.364;2022-07-18T14:02:18;7.90;;;2.20;;
36475;SDS011;56615;42.682;23.364;2022-07-18T14:04:43;5.47;;;2.28;;
36475;SDS011;56615;42.682;23.364;2022-07-18T14:07:09;6.47;;;2.38;;
36475;SDS011;56615;42.682;23.364;2022-07-18T14:09:36;7.53;;;2.22;;
36475;SDS011;56615;42.682;23.364;2022-07-18T14:12:03;4.78;;;2.22;;
36475;SDS011;56615;42.682;23.364;2022-07-18T14:14:28;6.88;;;2.80;;
36475;SDS011;56615;42.682;23.364;2022-07-18T14:16:54;6.93;;;2.35;;
36475;SDS011;56615;42.682;23.364;2022-07-18T14:19:19;8.57;;;2.25;;
36475;SDS011;56615;42.682;23.364;2022-07-18T14:21:45;5.70;;;2.33;;
36475;SDS011;56615;42.682;23.364;2022-07-18T14:24:10;6.45;;;2.35;;
36475;SDS011;56615;42.682;23.364;2022-07-18T14:26:36;7.82;;;2.67;;
36475;SDS011;56615;42.682;23.364;2022-07-18T14:29:02;6.35;;;2.53;;
36475;SDS011;56615;42.682;23.364;2022-07-18T14:31:28;4.38;;;2.20;;
36475;SDS011;56615;42.682;23.364;2022-07-18T14:33:54;6.30;;;2.35;;
36475;SDS011;56615;42.682;23.364;2022-07-18T14:36:19;6.00;;;2.20;;
36475;SDS011;56615;42.682;23.364;2022-07-18T14:38:44;6.25;;;3.20;;
36475;SDS011;56615;42.682;23.364;2022-07-18T14:41:10;5.65;;;2.47;;
36475;SDS011;56615;42.682;23.364;2022-07-18T14:43:37;5.97;;;2.80;;
36475;SDS011;56615;42.682;23.364;2022-07-18T14:46:03;10.30;;;3.58;;
36475;SDS011;56615;42.682;23.364;2022-07-18T14:48:29;8.52;;;3.40;;
36475;SDS011;56615;42.682;23.364;2022-07-18T14:50:55;5.07;;;2.35;;
36475;SDS011;56615;42.682;23.364;2022-07-18T14:53:21;7.97;;;2.40;;
36475;SDS011;56615;42.682;23.364;2022-07-18T14:55:47;5.85;;;2.30;;
36475;SDS011;56615;42.682;23.364;2022-07-18T14:58:12;9.48;;;2.47;;
36475;SDS011;56615;42.682;23.364;2022-07-18T15:00:38;7.03;;;2.67;;
36475;SDS011;56615;42.682;23.364;2022-07-18T15:03:04;7.25;;;3.33;;
36475;SDS011;56615;42.682;23.364;2022-07-18T15:05:29;11.30;;;3.83;;
36475;SDS011;56615;42.682;23.364;2022-07-18T15:07:55;9.85;;;2.97;;
36475;SDS011;56615;42.682;23.364;2022-07-18T15:10:20;4.75;;;2.50;;
36475;SDS011;56615;42.682;23.364;2022-07-18T15:12:45;7.60;;;2.92;;
36475;SDS011;56615;42.682;23.364;2022-07-18T15:15:11;9.52;;;2.83;;
36475;SDS011;56615;42.682;23.364;2022-07-18T15:17:36;8.25;;;2.67;;
36475;SDS011;56615;42.682;23.364;2022-07-18T15:20:03;5.03;;;2.63;;
36475;SDS011;56615;42.682;23.364;2022-07-18T15:22:32;6.38;;;3.10;;
36475;SDS011;56615;42.682;23.364;2022-07-18T15:24:57;7.93;;;3.90;;
36475;SDS011;56615;42.682;23.364;2022-07-18T15:27:23;7.00;;;2.90;;
36475;SDS011;56615;42.682;23.364;2022-07-18T15:29:48;5.93;;;3.20;;
36475;SDS011;56615;42.682;23.364;2022-07-18T15:32:14;9.18;;;3.00;;
36475;SDS011;56615;42.682;23.364;2022-07-18T15:34:40;7.40;;;2.92;;
36475;SDS011;56615;42.682;23.364;2022-07-18T15:37:05;5.72;;;2.92;;